Freistadt, Austria
Current Conditions -  °F | °C
As of 5:50 AM on Saturday 20 Dec 2014 (Local Time) from LOWL Reporting Station
Moderate Rain Moderate Rain  
Wind Chill: 37°   Ceiling: 3000
Heat Index: 45°   Visibility: 6mi
Dew Point: 39°   Wind: 20mph
Humidity: 81%   Direction: 300°WNW
Pressure: 30.18"   Gusts: NA
Location:  48.52°N, 14.5°E
Report Text: LOWL 200350Z 30017KT 9999 RA FEW011 SCT020 BKN030 07/04 Q1022 RERA BECMG -RA
Loading
Personal Weather Stations






























Interactive Weather Map New forecast layout! Learn more

10-Day Weather Forecast

Advertisements
Track Severe Weather on mobile